Pagina principale
METAR-TAF:

METAR-TAF

Aeroporti :

Catania, Italia

Aeroporto di Catania-Fontanarossa

latitudine: 37-28N, longitudine: 015-03E, altezza: 11 m

Osservazione

Il bollettino è stato emesso 15 minuti fa, alle 17:20 UTC
Vento 5 kt da ovest, variando fra sud-ovest e ovest/nord-ovest
Temperature 15°C
Umidità 77%
Pressione 1013 hPa
Visibilità 10 km o più
Poco nuvoloso ad un'altezza di 5000 ft
Nubi sparse ad un'altezza di 7000 ft

METAR: LICC 181720Z 28005KT 230V300 9999 FEW050 SCT070 15/11 Q1013

Ora: 18:35 (17:35 UTC)

Previsione

Il bollettino è stato emesso 35 minuti fa, alle 17:00 UTC
Previsione valida dal 18 alle 18 UTC al 19 alle 18 UTC
Vento 8 kt da ovest/sud-ovest
Visibilità 10 km o più
Nubi sparse ad un'altezza di 4000 ft
Evoluzione graduale
dal 19 alle 10 UTC al 19 alle 12 UTC
Vento 10 kt da nord-est

TAF: LICC 181700Z 1818/1918 25008KT 9999 SCT040 BECMG 1910/1912 04010KT

Osservazioni e previsioni meteorologiche di più di 4000 aeroporti (messaggi METAR e TAF).

Le stazioni disponibili sono rappresentate dai dischi gialli e rossi sulla carta.

Puntare il mouse per vedere il nome della stazione.

Clicca sopra per visualizzare le osservazioni e previsioni meteorologiche.

Per cambiare la mappa : fare clic sui pulsanti verdi con una croce nera per ingrandire, il pulsante verde con un trattino per diminuire, o sulla freccia verde per le mappe adiacenti.


METAR-TAF: